createdAt,value
2022-10-05T00:00:47.166Z,93.54
2022-10-05T00:03:14.426Z,94.16
2022-10-05T00:05:45.372Z,94.16
2022-10-05T00:08:17.726Z,94.87
2022-10-05T00:10:49.150Z,95.58
2022-10-05T00:13:20.621Z,96.04
2022-10-05T00:15:51.614Z,96.42
2022-10-05T00:18:20.665Z,96.15
2022-10-05T00:20:49.195Z,95.95
2022-10-05T00:23:19.852Z,95.47
2022-10-05T00:25:47.742Z,95.59
2022-10-05T00:28:20.075Z,94.83
2022-10-05T00:30:47.647Z,95.41
2022-10-05T00:33:14.927Z,95.54
2022-10-05T00:35:42.267Z,95.44
2022-10-05T00:38:09.549Z,97.22
2022-10-05T00:40:55.775Z,97.42
2022-10-05T00:43:41.527Z,98.31
2022-10-05T00:46:23.049Z,97.29
2022-10-05T00:48:56.399Z,97.96
2022-10-05T00:51:28.545Z,97.51
2022-10-05T00:54:08.125Z,97.61
2022-10-05T00:56:50.536Z,97.50
2022-10-05T00:59:23.811Z,98.79
2022-10-05T01:02:08.708Z,98.05
2022-10-05T01:04:50.831Z,99.15
2022-10-05T01:07:20.891Z,98.04
2022-10-05T01:10:05.464Z,98.11
2022-10-05T01:13:10.241Z,98.18
2022-10-05T01:15:47.103Z,98.57
2022-10-05T01:18:24.771Z,97.90
2022-10-05T01:21:14.617Z,98.42
2022-10-05T01:24:05.176Z,98.47
2022-10-05T01:26:44.778Z,98.38
2022-10-05T01:29:17.912Z,99.32
2022-10-05T01:31:56.756Z,98.89
2022-10-05T01:34:42.625Z,99.22
2022-10-05T01:37:38.934Z,98.96
2022-10-05T01:40:31.986Z,98.32
2022-10-05T01:43:11.393Z,97.43
2022-10-05T01:46:21.612Z,97.98
2022-10-05T01:49:11.973Z,97.11
2022-10-05T01:51:55.701Z,97.31
2022-10-05T01:54:51.952Z,96.63
2022-10-05T01:57:24.779Z,96.34
2022-10-05T02:00:15.234Z,96.31
2022-10-05T02:02:50.680Z,96.09
2022-10-05T02:05:26.342Z,96.31
2022-10-05T02:07:58.686Z,95.82
2022-10-05T02:10:57.617Z,96.74
2022-10-05T02:13:52.721Z,97.18
2022-10-05T02:16:34.899Z,97.62
2022-10-05T02:19:21.799Z,97.07
2022-10-05T02:22:12.992Z,96.86
2022-10-05T02:24:50.859Z,96.53
2022-10-05T02:27:24.551Z,96.79
2022-10-05T02:29:56.789Z,97.79
2022-10-05T02:32:28.474Z,97.81
2022-10-05T02:35:04.233Z,97.25
2022-10-05T02:37:43.739Z,97.25
2022-10-05T02:40:29.141Z,97.66
2022-10-05T02:43:07.918Z,97.45
2022-10-05T02:46:08.092Z,97.21
2022-10-05T02:48:56.380Z,98.00
2022-10-05T02:51:37.709Z,98.33
2022-10-05T02:54:38.062Z,97.98
2022-10-05T02:57:20.277Z,97.98
2022-10-05T03:00:08.314Z,97.69
2022-10-05T03:02:43.297Z,96.70
2022-10-05T03:05:35.083Z,96.98
2022-10-05T03:08:13.680Z,98.75
2022-10-05T03:10:53.659Z,98.34
2022-10-05T03:13:39.398Z,97.76
2022-10-05T03:16:07.508Z,97.43
2022-10-05T03:19:12.017Z,97.70
2022-10-05T03:21:59.054Z,96.94
2022-10-05T03:24:51.921Z,95.88
2022-10-05T03:27:28.777Z,97.05
2022-10-05T03:30:09.746Z,97.88
2022-10-05T03:32:47.775Z,97.03
2022-10-05T03:35:20.237Z,96.75
2022-10-05T03:37:56.103Z,97.89
2022-10-05T03:40:36.854Z,97.45
2022-10-05T03:43:16.707Z,97.68
2022-10-05T03:46:06.411Z,98.26
2022-10-05T03:48:52.627Z,98.12
2022-10-05T03:51:23.506Z,98.31
2022-10-05T03:54:00.777Z,97.83
2022-10-05T03:56:37.337Z,95.84
2022-10-05T03:59:21.914Z,93.01
2022-10-05T04:01:57.010Z,92.08
2022-10-05T04:04:33.041Z,92.23
2022-10-05T04:07:01.976Z,93.05
2022-10-05T04:09:35.427Z,94.27
2022-10-05T04:12:33.410Z,94.04
2022-10-05T04:15:08.102Z,92.92
2022-10-05T04:17:42.489Z,91.32
2022-10-05T04:20:22.816Z,89.65
2022-10-05T04:22:50.185Z,88.99
2022-10-05T04:25:22.839Z,90.84
2022-10-05T04:28:16.504Z,91.65
2022-10-05T04:30:50.222Z,90.32
2022-10-05T04:33:17.670Z,88.54
2022-10-05T04:36:05.055Z,89.25
2022-10-05T04:38:51.763Z,86.71
2022-10-05T04:41:36.815Z,86.67
2022-10-05T04:44:35.235Z,85.40
2022-10-05T04:47:50.697Z,84.70
2022-10-05T04:50:18.056Z,85.43
2022-10-05T04:53:00.596Z,83.31
2022-10-05T04:55:52.503Z,82.42
2022-10-05T04:58:55.533Z,82.60
2022-10-05T05:02:02.252Z,81.98
2022-10-05T05:04:36.045Z,83.17
2022-10-05T05:07:32.099Z,82.68
2022-10-05T05:10:39.553Z,82.98
2022-10-05T05:13:46.553Z,81.59
2022-10-05T05:16:39.870Z,81.40
2022-10-05T05:19:37.564Z,81.53
2022-10-05T05:22:08.075Z,81.63
2022-10-05T05:24:54.491Z,81.35
2022-10-05T05:28:06.409Z,83.04
2022-10-05T05:30:44.206Z,82.13
2022-10-05T05:33:27.778Z,82.84
2022-10-05T05:36:02.599Z,81.73
2022-10-05T05:38:43.378Z,81.82
2022-10-05T05:41:13.883Z,81.36
2022-10-05T05:44:22.995Z,83.37
2022-10-05T05:47:20.800Z,82.60
2022-10-05T05:50:10.404Z,82.00
2022-10-05T05:52:45.227Z,83.68
2022-10-05T05:55:30.351Z,83.93
2022-10-05T05:58:27.454Z,85.18
2022-10-05T06:01:04.320Z,86.26
2022-10-05T06:03:44.381Z,86.16
2022-10-05T06:06:17.052Z,84.59
2022-10-05T06:08:52.431Z,85.12
2022-10-05T06:11:40.216Z,85.05
2022-10-05T06:14:34.093Z,84.61
2022-10-05T06:17:12.095Z,83.80
2022-10-05T06:19:40.584Z,84.10
2022-10-05T06:22:15.153Z,84.78
2022-10-05T06:25:28.947Z,83.93
2022-10-05T06:28:14.110Z,83.71
2022-10-05T06:31:07.426Z,84.32
2022-10-05T06:33:53.964Z,83.94
2022-10-05T06:36:38.917Z,82.14
2022-10-05T06:39:12.493Z,82.07
2022-10-05T06:41:48.516Z,83.64
2022-10-05T06:44:24.891Z,84.47
2022-10-05T06:47:25.460Z,84.39
2022-10-05T06:50:42.655Z,82.96
2022-10-05T06:53:33.684Z,83.06
2022-10-05T06:56:04.082Z,82.15
2022-10-05T06:59:07.307Z,84.11
2022-10-05T07:01:58.679Z,84.26
2022-10-05T07:04:39.234Z,83.23
2022-10-05T07:07:42.472Z,83.10
2022-10-05T07:10:29.170Z,80.66
2022-10-05T07:13:21.539Z,78.81
2022-10-05T07:16:01.614Z,79.97
2022-10-05T07:18:46.516Z,81.43
2022-10-05T07:21:53.367Z,80.40
2022-10-05T07:24:32.954Z,78.82
2022-10-05T07:27:06.360Z,79.94
2022-10-05T07:29:48.400Z,79.26
2022-10-05T07:32:34.729Z,77.35
2022-10-05T07:35:32.380Z,75.27
2022-10-05T07:38:38.643Z,75.45
2022-10-05T07:41:17.399Z,74.57
2022-10-05T07:44:03.390Z,74.03
2022-10-05T07:47:02.117Z,73.94
2022-10-05T07:49:42.337Z,74.10
2022-10-05T07:52:23.863Z,73.13
2022-10-05T07:55:09.331Z,73.16
2022-10-05T07:58:05.089Z,70.65
2022-10-05T08:01:02.002Z,66.57
2022-10-05T08:03:47.272Z,63.62
2022-10-05T08:06:49.035Z,65.55
2022-10-05T08:09:26.987Z,67.04
2022-10-05T08:12:06.098Z,65.96
2022-10-05T08:15:02.660Z,65.29
2022-10-05T08:17:46.644Z,67.77
2022-10-05T08:20:40.456Z,68.95
2022-10-05T08:23:25.194Z,69.15
2022-10-05T08:26:07.766Z,70.23
2022-10-05T08:28:47.027Z,69.69
2022-10-05T08:31:20.763Z,67.42
2022-10-05T08:34:16.836Z,67.72
2022-10-05T08:37:05.509Z,68.47
2022-10-05T08:39:40.910Z,67.72
2022-10-05T08:42:23.315Z,66.11
2022-10-05T08:45:09.143Z,61.93
2022-10-05T08:48:10.404Z,59.07
2022-10-05T08:50:40.995Z,59.54
2022-10-05T08:53:47.171Z,61.85
2022-10-05T08:56:22.255Z,64.21
2022-10-05T08:59:17.878Z,65.72
2022-10-05T09:02:03.985Z,66.15
2022-10-05T09:04:40.027Z,65.45
2022-10-05T09:07:07.244Z,64.44
2022-10-05T09:10:06.473Z,65.53
2022-10-05T09:13:08.990Z,65.06
2022-10-05T09:15:51.083Z,65.80
2022-10-05T09:18:55.571Z,65.13
2022-10-05T09:21:44.761Z,66.76
2022-10-05T09:24:12.351Z,67.23
2022-10-05T09:26:42.493Z,65.94
2022-10-05T09:29:33.981Z,63.71
2022-10-05T09:32:34.882Z,64.86
2022-10-05T09:35:21.608Z,61.74
2022-10-05T09:38:08.346Z,64.73
2022-10-05T09:40:57.457Z,66.08
2022-10-05T09:44:02.274Z,67.72
2022-10-05T09:46:56.085Z,70.16
2022-10-05T09:49:36.508Z,69.90
2022-10-05T09:52:19.186Z,70.71
2022-10-05T09:55:31.193Z,66.48
2022-10-05T09:58:20.342Z,64.66
2022-10-05T10:01:36.499Z,64.28
2022-10-05T10:04:26.609Z,63.60
2022-10-05T10:07:25.776Z,62.18
2022-10-05T10:10:13.925Z,60.37
2022-10-05T10:12:57.143Z,61.44
2022-10-05T10:15:52.666Z,59.53
2022-10-05T10:18:52.447Z,59.08
2022-10-05T10:21:42.378Z,56.79
2022-10-05T10:24:18.426Z,56.52
2022-10-05T10:27:04.543Z,56.11
2022-10-05T10:29:50.550Z,57.14
2022-10-05T10:32:46.950Z,57.57
2022-10-05T10:35:33.701Z,56.02
2022-10-05T10:38:27.693Z,54.35
2022-10-05T10:41:19.364Z,54.00
2022-10-05T10:44:22.364Z,57.93
2022-10-05T10:46:59.408Z,59.47
2022-10-05T10:49:32.620Z,59.36
2022-10-05T10:52:19.577Z,61.48
2022-10-05T10:54:46.793Z,59.76
2022-10-05T10:57:51.433Z,61.66
2022-10-05T11:00:30.626Z,62.89
2022-10-05T11:03:13.574Z,64.50
2022-10-05T11:06:20.958Z,65.73
2022-10-05T11:08:57.002Z,67.33
2022-10-05T11:11:24.296Z,63.97
2022-10-05T11:14:27.793Z,64.51
2022-10-05T11:16:57.706Z,64.85
2022-10-05T11:20:05.208Z,64.17
2022-10-05T11:22:45.925Z,64.01
2022-10-05T11:25:19.012Z,63.33
2022-10-05T11:28:14.275Z,62.56
2022-10-05T11:30:41.622Z,62.60
2022-10-05T11:33:30.909Z,61.05
2022-10-05T11:36:29.339Z,63.86
2022-10-05T11:39:05.972Z,63.51
2022-10-05T11:41:44.306Z,65.44
2022-10-05T11:44:15.412Z,66.46
2022-10-05T11:47:15.749Z,66.87
2022-10-05T11:49:58.129Z,67.52
2022-10-05T11:52:43.820Z,68.58
2022-10-05T11:55:32.906Z,69.08
2022-10-05T11:58:20.229Z,69.26
2022-10-05T12:01:07.063Z,70.01
2022-10-05T12:03:43.089Z,69.80
2022-10-05T12:06:47.465Z,70.35
2022-10-05T12:09:36.510Z,70.72
2022-10-05T12:12:27.057Z,69.99
2022-10-05T12:15:25.329Z,69.59
2022-10-05T12:18:01.878Z,70.26
2022-10-05T12:20:35.019Z,69.41
2022-10-05T12:23:39.361Z,69.03
2022-10-05T12:26:20.512Z,69.39
2022-10-05T12:28:52.059Z,69.11
2022-10-05T12:31:44.275Z,69.24
2022-10-05T12:34:17.980Z,70.82
2022-10-05T12:37:16.913Z,71.15
2022-10-05T12:40:06.195Z,70.05
2022-10-05T12:42:41.879Z,70.64
2022-10-05T12:45:29.298Z,70.64
2022-10-05T12:48:18.798Z,68.62
2022-10-05T12:51:11.895Z,70.09
2022-10-05T12:54:00.236Z,69.78
2022-10-05T12:56:59.160Z,68.61
2022-10-05T12:59:44.604Z,68.35
2022-10-05T13:02:20.812Z,69.27
2022-10-05T13:04:56.489Z,67.48
2022-10-05T13:07:31.985Z,64.68
2022-10-05T13:10:02.025Z,64.62
2022-10-05T13:12:51.018Z,64.72
2022-10-05T13:15:30.283Z,65.96
2022-10-05T13:18:16.141Z,66.15
2022-10-05T13:21:14.003Z,63.90
2022-10-05T13:23:57.210Z,64.62
2022-10-05T13:26:48.557Z,64.16
2022-10-05T13:29:33.178Z,64.40
2022-10-05T13:32:09.637Z,64.73
2022-10-05T13:34:47.132Z,64.87
2022-10-05T13:37:33.894Z,65.58
2022-10-05T13:40:32.429Z,64.36
2022-10-05T13:43:14.516Z,63.96
2022-10-05T13:46:03.033Z,65.64
2022-10-05T13:48:59.346Z,67.76
2022-10-05T13:51:54.341Z,65.58
2022-10-05T13:54:48.098Z,67.03
2022-10-05T13:57:46.305Z,65.48
2022-10-05T14:00:26.401Z,65.52
2022-10-05T14:02:58.104Z,67.95
2022-10-05T14:05:27.890Z,65.19
2022-10-05T14:08:04.275Z,66.07
2022-10-05T14:10:43.646Z,65.81
2022-10-05T14:13:35.070Z,66.09
2022-10-05T14:16:24.885Z,67.37
2022-10-05T14:19:18.547Z,66.86
2022-10-05T14:22:11.268Z,68.34
2022-10-05T14:25:18.085Z,66.00
2022-10-05T14:28:23.983Z,64.68
2022-10-05T14:30:59.445Z,65.31
2022-10-05T14:33:29.870Z,66.20
2022-10-05T14:35:58.717Z,66.34
2022-10-05T14:38:46.796Z,67.80
2022-10-05T14:41:28.719Z,68.29
2022-10-05T14:44:28.052Z,68.10
2022-10-05T14:47:04.393Z,69.51
2022-10-05T14:49:36.194Z,70.33
2022-10-05T14:52:32.371Z,69.77
2022-10-05T14:55:17.728Z,69.09
2022-10-05T14:58:09.117Z,69.50
2022-10-05T15:00:56.970Z,70.39
2022-10-05T15:03:50.960Z,70.45
2022-10-05T15:06:54.701Z,72.11
2022-10-05T15:10:14.168Z,70.22
2022-10-05T15:12:46.736Z,69.24
2022-10-05T15:15:27.094Z,68.89
2022-10-05T15:18:00.439Z,68.77
2022-10-05T15:20:45.812Z,69.83
2022-10-05T15:23:26.299Z,70.90
2022-10-05T15:26:14.242Z,70.43
2022-10-05T15:29:02.868Z,70.09
2022-10-05T15:31:52.086Z,69.92
2022-10-05T15:34:36.853Z,69.46
2022-10-05T15:37:25.865Z,69.56
2022-10-05T15:39:58.996Z,70.24
2022-10-05T15:42:38.244Z,69.63
2022-10-05T15:45:32.322Z,70.11
2022-10-05T15:48:04.978Z,69.81
2022-10-05T15:50:58.134Z,69.55
2022-10-05T15:53:34.805Z,69.88
2022-10-05T15:56:36.114Z,69.56
2022-10-05T15:59:30.589Z,70.54
2022-10-05T16:02:04.503Z,70.18
2022-10-05T16:04:43.702Z,70.38
2022-10-05T16:07:55.302Z,70.82
2022-10-05T16:10:26.344Z,71.00
2022-10-05T16:13:02.576Z,70.86
2022-10-05T16:15:41.311Z,72.56
2022-10-05T16:18:12.140Z,73.21
2022-10-05T16:20:57.055Z,74.17
2022-10-05T16:23:50.300Z,75.04
2022-10-05T16:26:42.328Z,75.84
2022-10-05T16:29:35.591Z,76.35
2022-10-05T16:32:26.246Z,77.20
2022-10-05T16:34:54.236Z,78.26
2022-10-05T16:37:41.031Z,78.84
2022-10-05T16:40:33.070Z,79.22
2022-10-05T16:43:33.490Z,79.74
2022-10-05T16:46:22.602Z,80.27
2022-10-05T16:49:03.111Z,79.79
2022-10-05T16:51:45.488Z,80.41
2022-10-05T16:54:26.053Z,80.78
2022-10-05T16:57:09.770Z,80.87
2022-10-05T16:59:49.174Z,80.57
2022-10-05T17:02:51.690Z,81.95
2022-10-05T17:05:29.500Z,81.71
2022-10-05T17:08:17.906Z,81.41
2022-10-05T17:11:11.309Z,81.31
2022-10-05T17:14:17.665Z,81.65
2022-10-05T17:16:51.262Z,81.58
2022-10-05T17:19:38.587Z,81.29
2022-10-05T17:22:14.584Z,81.00
2022-10-05T17:24:50.988Z,81.00
2022-10-05T17:27:31.895Z,81.01
2022-10-05T17:30:19.547Z,80.77
2022-10-05T17:33:29.053Z,81.03
2022-10-05T17:36:16.879Z,80.81
2022-10-05T17:38:48.812Z,80.75
2022-10-05T17:41:24.848Z,80.66
2022-10-05T17:44:19.030Z,81.53
2022-10-05T17:46:54.895Z,80.84
2022-10-05T17:49:25.876Z,80.81
2022-10-05T17:52:11.678Z,81.37
2022-10-05T17:55:03.699Z,82.53
2022-10-05T17:57:32.081Z,81.88
2022-10-05T18:00:02.322Z,82.15
2022-10-05T18:02:36.194Z,82.61
2022-10-05T18:05:04.547Z,81.98
2022-10-05T18:07:34.560Z,81.91
2022-10-05T18:10:17.209Z,84.00
2022-10-05T18:12:59.534Z,84.00
2022-10-05T18:15:26.866Z,84.19
2022-10-05T18:18:38.803Z,84.26
2022-10-05T18:21:23.084Z,85.24
2022-10-05T18:23:59.670Z,86.57
2022-10-05T18:26:53.068Z,86.93
2022-10-05T18:29:48.114Z,88.06
2022-10-05T18:32:52.214Z,88.28
2022-10-05T18:35:38.063Z,88.86
2022-10-05T18:38:30.276Z,89.96
2022-10-05T18:41:44.483Z,89.83
2022-10-05T18:44:14.290Z,90.62
2022-10-05T18:47:09.309Z,91.86
2022-10-05T18:50:10.420Z,91.34
2022-10-05T18:52:55.068Z,90.92
2022-10-05T18:55:32.996Z,90.88
2022-10-05T18:58:26.020Z,90.58
2022-10-05T19:01:39.073Z,91.34
2022-10-05T19:04:12.586Z,91.54
2022-10-05T19:06:56.955Z,91.56
2022-10-05T19:09:46.988Z,92.25
2022-10-05T19:12:26.186Z,92.48
2022-10-05T19:14:59.472Z,92.84
2022-10-05T19:17:52.035Z,93.09
2022-10-05T19:20:19.355Z,93.14
2022-10-05T19:22:52.658Z,93.60
2022-10-05T19:25:39.932Z,93.35
2022-10-05T19:28:31.746Z,94.13
2022-10-05T19:31:18.665Z,94.66
2022-10-05T19:33:53.822Z,94.10
2022-10-05T19:36:59.668Z,94.03
2022-10-05T19:40:04.553Z,94.68
2022-10-05T19:42:45.221Z,95.00
2022-10-05T19:45:22.696Z,95.79
2022-10-05T19:48:14.491Z,95.30
2022-10-05T19:50:54.724Z,96.05
2022-10-05T19:53:37.010Z,96.12
2022-10-05T19:56:17.470Z,96.90
2022-10-05T19:58:45.018Z,96.53
2022-10-05T20:01:24.716Z,96.39
2022-10-05T20:03:53.329Z,95.23
2022-10-05T20:06:25.190Z,95.89
2022-10-05T20:09:00.468Z,97.02
2022-10-05T20:11:29.133Z,97.30
2022-10-05T20:13:59.734Z,97.76
2022-10-05T20:16:50.789Z,98.07
2022-10-05T20:19:51.767Z,98.92
2022-10-05T20:22:43.185Z,98.52
2022-10-05T20:25:19.351Z,98.92
2022-10-05T20:27:55.577Z,99.21
2022-10-05T20:30:25.913Z,99.46
2022-10-05T20:32:59.677Z,99.83
2022-10-05T20:35:31.979Z,100.00
2022-10-05T20:37:59.900Z,100.00
2022-10-05T20:40:29.233Z,100.00
2022-10-05T20:42:58.372Z,99.49
2022-10-05T20:45:25.867Z,99.35
2022-10-05T20:47:53.134Z,98.44
2022-10-05T20:50:22.211Z,98.46
2022-10-05T20:52:49.580Z,98.54
2022-10-05T20:55:17.046Z,98.38
2022-10-05T20:57:46.070Z,98.86
2022-10-05T21:00:13.899Z,99.45
2022-10-05T21:02:41.238Z,99.92
2022-10-05T21:05:08.910Z,100.00
2022-10-05T21:07:36.432Z,100.00
2022-10-05T21:10:04.040Z,100.00
2022-10-05T21:12:33.974Z,100.00
2022-10-05T21:15:01.505Z,100.00
2022-10-05T21:17:28.831Z,100.00
2022-10-05T21:19:56.187Z,100.00
2022-10-05T21:22:23.644Z,99.87
2022-10-05T21:24:50.905Z,100.00
2022-10-05T21:27:18.281Z,100.00
2022-10-05T21:29:46.158Z,100.00
2022-10-05T21:32:13.451Z,100.00
2022-10-05T21:34:41.513Z,100.00
2022-10-05T21:37:09.107Z,100.00
2022-10-05T21:39:36.769Z,100.00
2022-10-05T21:42:04.486Z,100.00
2022-10-05T21:44:31.805Z,100.00
2022-10-05T21:46:59.211Z,100.00
2022-10-05T21:49:27.708Z,100.00
2022-10-05T21:51:55.315Z,100.00
2022-10-05T21:54:23.748Z,100.00
2022-10-05T21:56:54.758Z,100.00
2022-10-05T21:59:26.603Z,100.00
2022-10-05T22:01:54.029Z,100.00
2022-10-05T22:04:21.303Z,100.00
2022-10-05T22:06:49.242Z,100.00
2022-10-05T22:09:16.511Z,100.00
2022-10-05T22:11:47.521Z,100.00
2022-10-05T22:14:15.589Z,100.00
2022-10-05T22:16:44.098Z,100.00
2022-10-05T22:19:18.106Z,100.00
2022-10-05T22:21:45.496Z,100.00
2022-10-05T22:24:12.727Z,100.00
2022-10-05T22:26:43.590Z,100.00
2022-10-05T22:29:11.092Z,100.00
2022-10-05T22:31:39.251Z,100.00
2022-10-05T22:34:06.741Z,100.00
2022-10-05T22:36:37.557Z,100.00
2022-10-05T22:39:04.909Z,100.00
2022-10-05T22:41:32.275Z,100.00
2022-10-05T22:44:00.566Z,100.00
2022-10-05T22:46:27.914Z,100.00
2022-10-05T22:48:55.218Z,100.00
2022-10-05T22:51:23.672Z,100.00
2022-10-05T22:53:50.974Z,100.00
2022-10-05T22:56:18.384Z,100.00
2022-10-05T22:58:46.157Z,100.00
2022-10-05T23:01:16.371Z,100.00
2022-10-05T23:03:44.313Z,100.00
2022-10-05T23:06:17.849Z,100.00
2022-10-05T23:08:46.053Z,100.00
2022-10-05T23:11:16.355Z,100.00
2022-10-05T23:13:44.271Z,100.00
2022-10-05T23:16:16.888Z,100.00
2022-10-05T23:18:44.966Z,100.00
2022-10-05T23:21:13.513Z,100.00
2022-10-05T23:23:43.583Z,100.00
2022-10-05T23:26:11.631Z,100.00
2022-10-05T23:28:46.537Z,100.00
2022-10-05T23:31:17.487Z,100.00
2022-10-05T23:33:45.224Z,100.00
2022-10-05T23:36:15.830Z,100.00
2022-10-05T23:38:43.515Z,100.00
2022-10-05T23:41:11.155Z,100.00
2022-10-05T23:43:38.823Z,100.00
2022-10-05T23:46:07.432Z,100.00
2022-10-05T23:48:37.968Z,100.00
2022-10-05T23:51:07.549Z,100.00
2022-10-05T23:53:35.317Z,100.00
2022-10-05T23:56:02.667Z,100.00
2022-10-05T23:58:30.340Z,100.00
